createdAt,value
2022-09-12T00:01:19.693Z,61.76
2022-09-12T00:03:49.313Z,61.79
2022-09-12T00:06:23.198Z,61.71
2022-09-12T00:08:54.759Z,61.84
2022-09-12T00:11:24.005Z,61.76
2022-09-12T00:13:53.312Z,62.26
2022-09-12T00:16:25.312Z,61.76
2022-09-12T00:18:55.118Z,62.43
2022-09-12T00:21:25.069Z,62.00
2022-09-12T00:23:54.067Z,61.93
2022-09-12T00:26:23.890Z,61.91
2022-09-12T00:28:53.321Z,62.27
2022-09-12T00:31:25.047Z,61.67
2022-09-12T00:33:56.295Z,62.14
2022-09-12T00:36:26.995Z,63.30
2022-09-12T00:38:56.306Z,62.77
2022-09-12T00:41:28.091Z,62.60
2022-09-12T00:43:59.694Z,62.55
2022-09-12T00:46:36.233Z,62.44
2022-09-12T00:49:13.537Z,62.63
2022-09-12T00:51:46.177Z,62.51
2022-09-12T00:54:22.176Z,62.45
2022-09-12T00:56:56.879Z,62.45
2022-09-12T00:59:28.663Z,62.55
2022-09-12T01:01:59.092Z,62.32
2022-09-12T01:04:30.046Z,62.39
2022-09-12T01:07:00.497Z,62.29
2022-09-12T01:09:29.685Z,62.86
2022-09-12T01:11:59.164Z,62.61
2022-09-12T01:14:28.272Z,62.76
2022-09-12T01:16:58.821Z,62.78
2022-09-12T01:20:05.842Z,62.58
2022-09-12T01:22:57.939Z,62.36
2022-09-12T01:25:32.397Z,62.55
2022-09-12T01:28:34.329Z,62.42
2022-09-12T01:31:09.720Z,62.50
2022-09-12T01:34:10.751Z,62.32
2022-09-12T01:36:48.586Z,62.59
2022-09-12T01:39:27.935Z,62.52
2022-09-12T01:42:09.858Z,62.54
2022-09-12T01:44:45.580Z,62.86
2022-09-12T01:47:22.795Z,62.54
2022-09-12T01:49:58.853Z,62.99
2022-09-12T01:52:34.745Z,62.79
2022-09-12T01:55:10.255Z,62.92
2022-09-12T01:57:45.567Z,63.41
2022-09-12T02:00:15.653Z,62.85
2022-09-12T02:02:52.979Z,62.99
2022-09-12T02:05:28.815Z,62.92
2022-09-12T02:08:06.974Z,63.01
2022-09-12T02:10:44.775Z,63.22
2022-09-12T02:13:17.942Z,63.57
2022-09-12T02:15:51.864Z,63.12
2022-09-12T02:18:22.962Z,63.22
2022-09-12T02:20:55.380Z,63.02
2022-09-12T02:23:27.541Z,63.40
2022-09-12T02:26:00.065Z,63.15
2022-09-12T02:28:35.047Z,63.40
2022-09-12T02:31:24.237Z,63.13
2022-09-12T02:34:09.239Z,63.42
2022-09-12T02:36:46.649Z,63.25
2022-09-12T02:39:20.007Z,63.21
2022-09-12T02:41:51.899Z,63.24
2022-09-12T02:44:21.550Z,63.43
2022-09-12T02:46:55.313Z,63.24
2022-09-12T02:49:25.683Z,63.51
2022-09-12T02:51:54.796Z,63.39
2022-09-12T02:54:24.991Z,63.49
2022-09-12T02:56:53.850Z,63.69
2022-09-12T02:59:25.700Z,63.63
2022-09-12T03:02:13.420Z,63.53
2022-09-12T03:05:08.401Z,63.47
2022-09-12T03:08:06.249Z,63.44
2022-09-12T03:10:42.712Z,63.42
2022-09-12T03:13:22.824Z,63.46
2022-09-12T03:16:05.194Z,63.65
2022-09-12T03:18:43.821Z,63.71
2022-09-12T03:21:24.203Z,63.51
2022-09-12T03:24:04.752Z,63.50
2022-09-12T03:26:40.491Z,63.67
2022-09-12T03:29:11.483Z,63.64
2022-09-12T03:31:51.319Z,63.46
2022-09-12T03:34:20.643Z,63.18
2022-09-12T03:36:51.593Z,63.43
2022-09-12T03:39:21.106Z,63.55
2022-09-12T03:41:50.215Z,64.02
2022-09-12T03:44:19.240Z,63.54
2022-09-12T03:46:48.581Z,64.12
2022-09-12T03:49:17.918Z,63.92
2022-09-12T03:51:46.873Z,63.83
2022-09-12T03:54:17.497Z,64.07
2022-09-12T03:56:47.392Z,63.91
2022-09-12T03:59:16.209Z,63.87
2022-09-12T04:01:45.094Z,63.86
2022-09-12T04:04:14.238Z,63.94
2022-09-12T04:06:44.088Z,64.04
2022-09-12T04:09:12.944Z,64.09
2022-09-12T04:11:43.702Z,63.66
2022-09-12T04:14:12.695Z,64.23
2022-09-12T04:16:41.643Z,64.20
2022-09-12T04:19:12.686Z,64.18
2022-09-12T04:21:41.588Z,64.22
2022-09-12T04:24:10.524Z,64.31
2022-09-12T04:26:39.816Z,64.15
2022-09-12T04:29:11.672Z,64.07
2022-09-12T04:31:40.872Z,64.28
2022-09-12T04:34:10.006Z,64.18
2022-09-12T04:36:39.296Z,64.28
2022-09-12T04:39:08.598Z,64.31
2022-09-12T04:41:39.344Z,64.20
2022-09-12T04:44:12.974Z,64.18
2022-09-12T04:46:44.633Z,64.21
2022-09-12T04:49:14.495Z,64.25
2022-09-12T04:51:45.552Z,64.38
2022-09-12T04:54:17.166Z,64.41
2022-09-12T04:56:47.835Z,64.40
2022-09-12T04:59:19.855Z,64.50
2022-09-12T05:01:49.372Z,64.42
2022-09-12T05:04:18.307Z,64.43
2022-09-12T05:06:48.195Z,64.60
2022-09-12T05:09:17.512Z,64.63
2022-09-12T05:12:03.663Z,64.85
2022-09-12T05:14:35.791Z,65.07
2022-09-12T05:17:06.125Z,65.33
2022-09-12T05:19:35.405Z,65.12
2022-09-12T05:22:05.080Z,65.16
2022-09-12T05:24:34.038Z,65.08
2022-09-12T05:27:04.775Z,65.33
2022-09-12T05:29:35.132Z,65.39
2022-09-12T05:32:04.777Z,65.56
2022-09-12T05:34:33.534Z,65.19
2022-09-12T05:37:02.381Z,65.70
2022-09-12T05:39:31.821Z,65.47
2022-09-12T05:42:00.636Z,65.56
2022-09-12T05:44:29.625Z,65.36
2022-09-12T05:47:00.073Z,65.80
2022-09-12T05:49:29.996Z,65.56
2022-09-12T05:51:59.156Z,65.49
2022-09-12T05:54:31.354Z,65.54
2022-09-12T05:57:01.043Z,65.54
2022-09-12T05:59:30.107Z,65.50
2022-09-12T06:02:00.540Z,65.48
2022-09-12T06:04:29.746Z,65.61
2022-09-12T06:06:58.556Z,65.55
2022-09-12T06:09:28.198Z,65.48
2022-09-12T06:11:57.230Z,65.41
2022-09-12T06:14:26.110Z,65.45
2022-09-12T06:16:55.003Z,65.65
2022-09-12T06:19:27.900Z,65.44
2022-09-12T06:21:56.777Z,65.68
2022-09-12T06:24:25.874Z,65.61
2022-09-12T06:26:54.789Z,65.55
2022-09-12T06:29:25.215Z,65.56
2022-09-12T06:31:54.258Z,65.56
2022-09-12T06:34:24.554Z,65.49
2022-09-12T06:36:53.776Z,65.53
2022-09-12T06:39:24.443Z,65.56
2022-09-12T06:41:54.346Z,65.55
2022-09-12T06:44:35.408Z,65.48
2022-09-12T06:47:04.388Z,65.52
2022-09-12T06:49:34.746Z,65.40
2022-09-12T06:52:04.186Z,65.48
2022-09-12T06:54:33.597Z,65.59
2022-09-12T06:57:02.500Z,65.69
2022-09-12T06:59:31.669Z,65.34
2022-09-12T07:02:01.696Z,65.56
2022-09-12T07:04:33.375Z,65.49
2022-09-12T07:07:03.856Z,65.38
2022-09-12T07:09:32.832Z,65.42
2022-09-12T07:12:04.363Z,65.27
2022-09-12T07:14:33.503Z,65.16
2022-09-12T07:17:02.423Z,65.13
2022-09-12T07:19:31.462Z,65.07
2022-09-12T07:22:00.456Z,64.95
2022-09-12T07:24:30.805Z,65.00
2022-09-12T07:26:59.617Z,65.24
2022-09-12T07:29:37.687Z,64.70
2022-09-12T07:32:08.122Z,64.60
2022-09-12T07:34:37.318Z,64.71
2022-09-12T07:37:06.862Z,64.54
2022-09-12T07:39:37.826Z,64.44
2022-09-12T07:42:07.547Z,64.43
2022-09-12T07:44:36.526Z,64.32
2022-09-12T07:47:05.652Z,64.48
2022-09-12T07:49:36.074Z,64.07
2022-09-12T07:52:05.528Z,63.70
2022-09-12T07:54:34.739Z,63.58
2022-09-12T07:57:05.444Z,63.32
2022-09-12T07:59:51.896Z,63.62
2022-09-12T08:02:21.846Z,63.55
2022-09-12T08:04:51.536Z,63.59
2022-09-12T08:07:20.591Z,63.38
2022-09-12T08:09:49.777Z,63.19
2022-09-12T08:12:20.384Z,63.44
2022-09-12T08:14:49.417Z,63.34
2022-09-12T08:17:18.496Z,63.25
2022-09-12T08:19:48.254Z,63.01
2022-09-12T08:22:18.652Z,62.87
2022-09-12T08:24:47.837Z,62.51
2022-09-12T08:27:16.856Z,62.25
2022-09-12T08:29:47.198Z,62.32
2022-09-12T08:32:16.230Z,62.59
2022-09-12T08:34:45.241Z,62.36
2022-09-12T08:37:14.163Z,61.75
2022-09-12T08:39:43.981Z,62.12
2022-09-12T08:42:24.449Z,62.21
2022-09-12T08:45:15.215Z,62.25
2022-09-12T08:47:46.596Z,62.37
2022-09-12T08:50:19.777Z,62.10
2022-09-12T08:52:58.146Z,61.71
2022-09-12T08:55:34.777Z,61.92
2022-09-12T08:58:13.249Z,61.83
2022-09-12T09:00:50.897Z,62.08
2022-09-12T09:03:54.094Z,61.71
2022-09-12T09:06:59.487Z,61.62
2022-09-12T09:09:43.014Z,61.44
2022-09-12T09:12:23.724Z,61.63
2022-09-12T09:15:12.039Z,61.70
2022-09-12T09:17:46.317Z,61.64
2022-09-12T09:20:24.140Z,61.76
2022-09-12T09:22:56.998Z,61.34
2022-09-12T09:25:30.592Z,61.35
2022-09-12T09:28:06.148Z,61.53
2022-09-12T09:30:37.522Z,61.51
2022-09-12T09:33:13.131Z,61.74
2022-09-12T09:35:46.655Z,61.73
2022-09-12T09:38:26.160Z,61.80
2022-09-12T09:41:08.204Z,61.01
2022-09-12T09:43:40.603Z,60.66
2022-09-12T09:46:09.805Z,60.01
2022-09-12T09:48:45.525Z,60.60
2022-09-12T09:51:18.153Z,60.63
2022-09-12T09:53:51.320Z,60.61
2022-09-12T09:56:29.379Z,60.54
2022-09-12T09:58:58.964Z,60.63
2022-09-12T10:01:28.556Z,60.84
2022-09-12T10:03:59.927Z,60.97
2022-09-12T10:06:34.363Z,60.29
2022-09-12T10:09:18.810Z,60.09
2022-09-12T10:11:48.443Z,59.44
2022-09-12T10:14:36.774Z,59.89
2022-09-12T10:17:25.845Z,60.17
2022-09-12T10:20:17.368Z,60.07
2022-09-12T10:22:49.598Z,60.19
2022-09-12T10:25:19.754Z,60.21
2022-09-12T10:27:55.585Z,60.03
2022-09-12T10:30:28.307Z,59.31
2022-09-12T10:33:07.379Z,58.94
2022-09-12T10:35:49.744Z,58.53
2022-09-12T10:38:25.025Z,58.37
2022-09-12T10:41:00.322Z,59.24
2022-09-12T10:43:35.586Z,57.99
2022-09-12T10:46:25.127Z,58.55
2022-09-12T10:49:15.612Z,58.20
2022-09-12T10:51:45.853Z,58.18
2022-09-12T10:54:18.145Z,58.53
2022-09-12T10:57:12.470Z,58.95
2022-09-12T10:59:59.798Z,59.19
2022-09-12T11:02:31.576Z,59.41
2022-09-12T11:05:10.121Z,59.38
2022-09-12T11:07:48.930Z,59.11
2022-09-12T11:10:37.452Z,59.29
2022-09-12T11:13:13.904Z,59.24
2022-09-12T11:16:04.101Z,59.02
2022-09-12T11:18:57.272Z,59.33
2022-09-12T11:21:45.146Z,58.92
2022-09-12T11:24:38.907Z,59.33
2022-09-12T11:27:36.451Z,59.39
2022-09-12T11:30:10.606Z,59.29
2022-09-12T11:33:05.903Z,58.64
2022-09-12T11:35:36.590Z,58.35
2022-09-12T11:38:34.848Z,58.58
2022-09-12T11:41:09.361Z,58.32
2022-09-12T11:43:43.199Z,58.86
2022-09-12T11:46:19.166Z,58.34
2022-09-12T11:48:55.927Z,58.66
2022-09-12T11:51:30.011Z,59.07
2022-09-12T11:54:06.145Z,58.97
2022-09-12T11:56:43.692Z,59.17
2022-09-12T11:59:20.987Z,58.92
2022-09-12T12:01:54.788Z,59.16
2022-09-12T12:04:32.675Z,58.97
2022-09-12T12:07:06.620Z,59.33
2022-09-12T12:09:37.183Z,58.97
2022-09-12T12:12:16.657Z,59.24
2022-09-12T12:14:48.878Z,59.08
2022-09-12T12:17:20.466Z,58.88
2022-09-12T12:20:05.547Z,58.91
2022-09-12T12:22:37.841Z,58.91
2022-09-12T12:25:29.393Z,59.02
2022-09-12T12:28:01.949Z,59.20
2022-09-12T12:31:02.578Z,58.80
2022-09-12T12:33:55.512Z,58.70
2022-09-12T12:36:35.076Z,58.87
2022-09-12T12:39:52.669Z,58.79
2022-09-12T12:43:04.682Z,58.26
2022-09-12T12:46:03.688Z,58.47
2022-09-12T12:48:46.004Z,58.25
2022-09-12T12:51:28.977Z,58.20
2022-09-12T12:53:58.757Z,58.27
2022-09-12T12:56:34.536Z,58.32
2022-09-12T12:59:12.857Z,58.35
2022-09-12T13:01:55.198Z,58.43
2022-09-12T13:04:28.913Z,58.66
2022-09-12T13:07:07.179Z,58.31
2022-09-12T13:09:45.262Z,58.51
2022-09-12T13:12:23.250Z,58.45
2022-09-12T13:14:55.493Z,58.41
2022-09-12T13:17:33.970Z,58.48
2022-09-12T13:20:28.317Z,58.35
2022-09-12T13:22:58.553Z,58.14
2022-09-12T13:25:31.214Z,58.29
2022-09-12T13:28:05.220Z,58.35
2022-09-12T13:30:36.823Z,58.29
2022-09-12T13:33:22.137Z,58.93
2022-09-12T13:36:11.390Z,58.78
2022-09-12T13:38:52.419Z,60.38
2022-09-12T13:41:39.908Z,61.23
2022-09-12T13:44:13.251Z,61.81
2022-09-12T13:46:42.667Z,61.90
2022-09-12T13:49:22.011Z,61.75
2022-09-12T13:52:01.274Z,61.84
2022-09-12T13:54:32.040Z,61.32
2022-09-12T13:57:01.691Z,61.04
2022-09-12T13:59:38.695Z,60.82
2022-09-12T14:02:20.319Z,58.91
2022-09-12T14:05:10.290Z,59.12
2022-09-12T14:07:51.363Z,59.13
2022-09-12T14:10:27.164Z,58.32
2022-09-12T14:12:58.822Z,58.10
2022-09-12T14:15:31.180Z,57.26
2022-09-12T14:18:03.326Z,56.79
2022-09-12T14:20:39.483Z,56.07
2022-09-12T14:23:22.371Z,55.77
2022-09-12T14:25:52.145Z,55.87
2022-09-12T14:28:23.596Z,55.19
2022-09-12T14:31:06.552Z,53.82
2022-09-12T14:33:48.525Z,53.62
2022-09-12T14:36:24.530Z,53.01
2022-09-12T14:38:57.920Z,53.00
2022-09-12T14:41:31.055Z,52.48
2022-09-12T14:44:03.186Z,52.14
2022-09-12T14:46:35.641Z,51.75
2022-09-12T14:49:11.828Z,51.89
2022-09-12T14:51:54.051Z,51.55
2022-09-12T14:54:43.770Z,51.06
2022-09-12T14:57:33.395Z,50.35
2022-09-12T15:00:24.054Z,50.24
2022-09-12T15:02:54.659Z,50.12
2022-09-12T15:05:28.475Z,49.78
2022-09-12T15:08:02.794Z,49.91
2022-09-12T15:10:36.083Z,50.35
2022-09-12T15:13:16.999Z,48.88
2022-09-12T15:15:48.109Z,48.98
2022-09-12T15:18:18.835Z,48.97
2022-09-12T15:20:51.051Z,48.74
2022-09-12T15:23:35.080Z,48.87
2022-09-12T15:26:04.691Z,49.48
2022-09-12T15:28:34.377Z,50.37
2022-09-12T15:31:09.139Z,49.81
2022-09-12T15:33:38.417Z,49.44
2022-09-12T15:36:14.447Z,49.33
2022-09-12T15:38:45.351Z,49.10
2022-09-12T15:41:18.062Z,48.97
2022-09-12T15:43:48.829Z,49.21
2022-09-12T15:46:20.531Z,49.23
2022-09-12T15:48:50.130Z,49.57
2022-09-12T15:51:21.940Z,49.16
2022-09-12T15:53:53.036Z,49.24
2022-09-12T15:56:23.300Z,49.59
2022-09-12T15:58:59.307Z,49.96
2022-09-12T16:01:30.049Z,49.77
2022-09-12T16:03:59.966Z,49.78
2022-09-12T16:06:36.270Z,49.79
2022-09-12T16:09:08.206Z,49.54
2022-09-12T16:11:37.560Z,49.10
2022-09-12T16:14:07.168Z,49.33
2022-09-12T16:16:36.767Z,48.82
2022-09-12T16:19:06.408Z,49.14
2022-09-12T16:21:35.259Z,48.96
2022-09-12T16:24:05.659Z,48.90
2022-09-12T16:26:37.143Z,49.07
2022-09-12T16:29:06.666Z,48.76
2022-09-12T16:31:38.578Z,48.38
2022-09-12T16:34:07.804Z,48.51
2022-09-12T16:36:36.633Z,48.41
2022-09-12T16:39:06.334Z,48.08
2022-09-12T16:41:37.128Z,48.03
2022-09-12T16:44:06.122Z,47.82
2022-09-12T16:46:35.074Z,47.90
2022-09-12T16:49:06.004Z,47.76
2022-09-12T16:51:36.864Z,47.56
2022-09-12T16:54:06.283Z,47.35
2022-09-12T16:56:37.513Z,47.20
2022-09-12T16:59:06.818Z,47.15
2022-09-12T17:01:36.179Z,46.95
2022-09-12T17:04:05.186Z,47.15
2022-09-12T17:06:35.211Z,47.08
2022-09-12T17:09:05.325Z,47.23
2022-09-12T17:11:38.220Z,47.29
2022-09-12T17:14:09.130Z,47.20
2022-09-12T17:16:45.927Z,47.57
2022-09-12T17:19:19.424Z,47.68
2022-09-12T17:21:50.363Z,47.72
2022-09-12T17:24:20.858Z,47.85
2022-09-12T17:26:51.684Z,47.76
2022-09-12T17:29:21.258Z,48.11
2022-09-12T17:31:50.547Z,47.94
2022-09-12T17:34:19.444Z,48.27
2022-09-12T17:36:48.538Z,48.46
2022-09-12T17:39:17.981Z,48.38
2022-09-12T17:41:47.256Z,48.28
2022-09-12T17:44:18.735Z,48.33
2022-09-12T17:46:47.893Z,48.65
2022-09-12T17:49:21.022Z,48.83
2022-09-12T17:51:52.087Z,48.73
2022-09-12T17:54:22.421Z,48.90
2022-09-12T17:56:52.262Z,49.02
2022-09-12T17:59:24.988Z,49.25
2022-09-12T18:02:11.820Z,49.29
2022-09-12T18:04:41.427Z,49.34
2022-09-12T18:07:10.971Z,49.22
2022-09-12T18:09:41.243Z,49.54
2022-09-12T18:12:10.617Z,49.79
2022-09-12T18:14:43.801Z,49.61
2022-09-12T18:17:13.363Z,49.86
2022-09-12T18:19:42.475Z,49.92
2022-09-12T18:22:11.695Z,49.95
2022-09-12T18:24:41.463Z,49.81
2022-09-12T18:27:10.402Z,50.09
2022-09-12T18:29:39.673Z,50.04
2022-09-12T18:32:10.059Z,50.10
2022-09-12T18:34:39.051Z,50.24
2022-09-12T18:37:08.233Z,50.29
2022-09-12T18:39:37.294Z,50.18
2022-09-12T18:42:08.359Z,50.34
2022-09-12T18:44:37.949Z,50.36
2022-09-12T18:47:07.845Z,50.66
2022-09-12T18:49:38.358Z,50.69
2022-09-12T18:52:07.648Z,50.70
2022-09-12T18:54:37.496Z,50.69
2022-09-12T18:57:07.396Z,50.74
2022-09-12T18:59:36.639Z,50.87
2022-09-12T19:02:08.329Z,50.92
2022-09-12T19:04:39.128Z,50.87
2022-09-12T19:07:08.109Z,51.24
2022-09-12T19:09:37.032Z,51.25
2022-09-12T19:12:06.505Z,51.21
2022-09-12T19:14:35.273Z,51.07
2022-09-12T19:17:04.418Z,51.45
2022-09-12T19:19:36.597Z,51.58
2022-09-12T19:22:09.529Z,51.87
2022-09-12T19:24:39.895Z,52.04
2022-09-12T19:27:10.001Z,52.32
2022-09-12T19:29:39.042Z,52.41
2022-09-12T19:32:08.372Z,52.38
2022-09-12T19:34:37.245Z,52.51
2022-09-12T19:37:06.526Z,52.46
2022-09-12T19:39:37.079Z,52.65
2022-09-12T19:42:06.225Z,52.63
2022-09-12T19:44:35.269Z,52.79
2022-09-12T19:47:04.431Z,52.72
2022-09-12T19:49:33.376Z,52.68
2022-09-12T19:52:02.651Z,52.70
2022-09-12T19:54:31.656Z,52.70
2022-09-12T19:57:01.849Z,52.72
2022-09-12T19:59:31.473Z,52.73
2022-09-12T20:02:00.400Z,52.86
2022-09-12T20:04:29.808Z,53.03
2022-09-12T20:06:59.002Z,52.93
2022-09-12T20:09:27.825Z,52.88
2022-09-12T20:11:56.787Z,52.93
2022-09-12T20:14:27.216Z,52.99
2022-09-12T20:16:56.280Z,53.00
2022-09-12T20:19:25.262Z,52.96
2022-09-12T20:21:54.267Z,53.01
2022-09-12T20:24:23.100Z,53.13
2022-09-12T20:26:52.016Z,53.22
2022-09-12T20:29:21.151Z,53.23
2022-09-12T20:31:51.847Z,53.24
2022-09-12T20:34:22.514Z,53.31
2022-09-12T20:36:51.642Z,53.24
2022-09-12T20:39:22.814Z,53.40
2022-09-12T20:41:51.942Z,53.48
2022-09-12T20:44:21.217Z,53.41
2022-09-12T20:46:51.444Z,53.56
2022-09-12T20:49:20.443Z,53.44
2022-09-12T20:51:49.465Z,53.53
2022-09-12T20:54:18.343Z,53.65
2022-09-12T20:56:47.230Z,53.66
2022-09-12T20:59:16.517Z,53.55
2022-09-12T21:01:45.536Z,53.60
2022-09-12T21:04:16.203Z,53.74
2022-09-12T21:06:45.273Z,54.00
2022-09-12T21:09:14.853Z,53.95
2022-09-12T21:11:43.805Z,54.13
2022-09-12T21:14:13.072Z,54.06
2022-09-12T21:16:41.885Z,53.97
2022-09-12T21:19:10.986Z,54.13
2022-09-12T21:21:41.413Z,54.03
2022-09-12T21:24:13.970Z,54.14
2022-09-12T21:26:43.258Z,54.25
2022-09-12T21:29:12.142Z,54.23
2022-09-12T21:31:41.011Z,54.42
2022-09-12T21:34:10.377Z,54.52
2022-09-12T21:36:40.820Z,54.56
2022-09-12T21:39:09.989Z,54.45
2022-09-12T21:41:38.961Z,54.21
2022-09-12T21:44:07.986Z,54.54
2022-09-12T21:46:37.047Z,54.56
2022-09-12T21:49:06.585Z,54.65
2022-09-12T21:51:35.444Z,54.62
2022-09-12T21:54:05.998Z,54.74
2022-09-12T21:56:35.299Z,54.64
2022-09-12T21:59:04.365Z,54.75
2022-09-12T22:01:33.299Z,54.57
2022-09-12T22:04:02.329Z,54.62
2022-09-12T22:06:31.516Z,54.69
2022-09-12T22:09:00.478Z,54.89
2022-09-12T22:11:30.898Z,54.90
2022-09-12T22:13:59.854Z,54.93
2022-09-12T22:16:28.787Z,54.81
2022-09-12T22:18:58.476Z,54.92
2022-09-12T22:21:27.267Z,54.67
2022-09-12T22:24:13.681Z,54.90
2022-09-12T22:26:46.166Z,54.88
2022-09-12T22:29:15.366Z,54.99
2022-09-12T22:31:44.640Z,55.13
2022-09-12T22:34:14.242Z,55.13
2022-09-12T22:36:43.452Z,55.28
2022-09-12T22:39:12.273Z,55.34
2022-09-12T22:41:41.479Z,55.43
2022-09-12T22:44:13.103Z,55.47
2022-09-12T22:46:42.464Z,55.52
2022-09-12T22:49:11.427Z,55.55
2022-09-12T22:51:40.990Z,55.81
2022-09-12T22:54:11.747Z,55.88
2022-09-12T22:56:40.895Z,55.99
2022-09-12T22:59:11.196Z,55.87
2022-09-12T23:01:40.552Z,55.91
2022-09-12T23:04:09.646Z,55.86
2022-09-12T23:06:38.712Z,55.88
2022-09-12T23:09:08.076Z,55.81
2022-09-12T23:11:37.123Z,55.96
2022-09-12T23:14:06.013Z,55.84
2022-09-12T23:16:36.661Z,55.99
2022-09-12T23:19:05.655Z,56.12
2022-09-12T23:21:34.494Z,55.99
2022-09-12T23:24:05.211Z,56.08
2022-09-12T23:26:34.032Z,55.97
2022-09-12T23:29:05.674Z,55.91
2022-09-12T23:31:36.764Z,56.02
2022-09-12T23:34:07.085Z,56.08
2022-09-12T23:36:37.142Z,55.92
2022-09-12T23:39:06.484Z,55.88
2022-09-12T23:41:35.449Z,55.83
2022-09-12T23:44:04.810Z,55.93
2022-09-12T23:46:35.191Z,55.89
2022-09-12T23:49:04.033Z,56.03
2022-09-12T23:51:33.127Z,55.99
2022-09-12T23:54:02.043Z,56.14
2022-09-12T23:56:31.017Z,56.09
2022-09-12T23:59:00.043Z,55.96
